Time;durP1;ratioP1;P1;durP2;ratioP2;P2;SDS_P1;SDS_P2;PMS_P1;PMS_P2;Temp;Humidity;BMP_temperature;BMP_pressure;BME280_temperature;BME280_humidity;BME280_pressure;Samples;Min_cycle;Max_cycle;Signal;HPM_P1;HPM_P2
2023/06/29 00:00:06;;;;;;;3.63;2.23;;;;;;;13.89;100.00;100214.31;1456920;90;21582;-90
2023/06/29 00:02:31;;;;;;;3.20;1.70;;;;;;;13.89;100.00;100211.66;1451862;89;21619;-90
2023/06/29 00:04:57;;;;;;;7.57;1.53;;;;;;;13.91;100.00;100207.00;1445973;89;21398;-89
2023/06/29 00:07:26;;;;;;;3.53;1.90;;;;;;;13.91;100.00;100208.33;1450111;88;21531;-90
2023/06/29 00:09:53;;;;;;;3.70;1.77;;;;;;;13.87;100.00;100215.02;1452558;89;22511;-90
2023/06/29 00:12:20;;;;;;;3.83;1.97;;;;;;;13.83;100.00;100216.34;1451770;90;21775;-90
2023/06/29 00:14:46;;;;;;;3.23;1.80;;;;;;;13.84;100.00;100227.34;1441481;90;22492;-89
2023/06/29 00:17:17;;;;;;;4.13;1.90;;;;;;;13.87;100.00;100228.82;1449455;90;21346;-87
2023/06/29 00:19:40;;;;;;;3.10;2.53;;;;;;;13.88;100.00;100233.95;1453977;89;21479;-88
2023/06/29 00:22:08;;;;;;;3.60;1.60;;;;;;;13.87;100.00;100233.64;1446669;89;21412;-88
2023/06/29 00:24:42;;;;;;;5.47;1.70;;;;;;;13.88;100.00;100232.63;1445685;90;21346;-89
2023/06/29 00:27:06;;;;;;;3.63;1.43;;;;;;;13.91;100.00;100231.45;1446500;90;21353;-86
2023/06/29 00:29:32;;;;;;;4.50;2.50;;;;;;;13.93;100.00;100231.61;1447064;88;21493;-88
2023/06/29 00:31:59;;;;;;;11.07;2.00;;;;;;;13.97;100.00;100227.58;1451670;89;21390;-89
2023/06/29 00:34:25;;;;;;;6.23;2.13;;;;;;;14.00;100.00;100227.23;1454758;89;22493;-90
2023/06/29 00:36:51;;;;;;;4.97;1.93;;;;;;;14.02;100.00;100216.94;1455820;89;21287;-90
2023/06/29 00:39:17;;;;;;;3.47;2.20;;;;;;;14.06;100.00;100215.56;1457909;90;21368;-89
2023/06/29 00:41:44;;;;;;;3.83;1.70;;;;;;;14.06;100.00;100221.71;1449425;89;21763;-89
2023/06/29 00:44:10;;;;;;;6.03;1.93;;;;;;;14.04;100.00;100222.41;1445556;89;21523;-89
2023/06/29 00:46:36;;;;;;;4.53;2.13;;;;;;;14.00;100.00;100224.57;1453461;90;21625;-90
2023/06/29 00:49:02;;;;;;;9.97;2.07;;;;;;;14.02;100.00;100223.59;1442619;90;21493;-90
2023/06/29 00:51:30;;;;;;;3.70;1.77;;;;;;;14.05;100.00;100231.22;1450001;89;21309;-89
2023/06/29 00:53:56;;;;;;;12.23;1.97;;;;;;;14.05;100.00;100237.87;1454994;90;21389;-90
2023/06/29 00:56:23;;;;;;;5.03;2.50;;;;;;;14.04;100.00;100238.38;1449671;89;22692;-90
2023/06/29 00:58:49;;;;;;;2.20;1.93;;;;;;;14.07;100.00;100233.18;1450039;90;21501;-89
2023/06/29 01:01:15;;;;;;;4.00;1.87;;;;;;;14.11;100.00;100227.34;1451351;89;21368;-88
2023/06/29 01:03:42;;;;;;;7.70;1.50;;;;;;;14.16;100.00;100227.66;1455268;89;21428;-88
2023/06/29 01:06:12;;;;;;;3.30;1.70;;;;;;;14.19;100.00;100221.16;1456962;89;22492;-88
2023/06/29 01:08:44;;;;;;;4.50;2.15;;;;;;;14.24;100.00;100220.09;1452728;90;21552;-87
2023/06/29 01:11:11;;;;;;;5.70;2.20;;;;;;;14.27;100.00;100217.11;1454761;89;21449;-88
2023/06/29 01:13:39;;;;;;;12.10;3.53;;;;;;;14.31;100.00;100217.58;1449367;89;21433;-87
2023/06/29 01:16:07;;;;;;;5.10;2.03;;;;;;;14.31;100.00;100221.06;1450268;88;23028;-87
2023/06/29 01:18:34;;;;;;;5.17;2.50;;;;;;;14.30;100.00;100214.09;1447510;90;21302;-89
2023/06/29 01:21:02;;;;;;;4.77;2.27;;;;;;;14.33;100.00;100212.41;1441594;89;21619;-89
2023/06/29 01:23:36;;;;;;;7.20;1.90;;;;;;;14.34;100.00;100214.05;1453857;89;21421;-89
2023/06/29 01:26:01;;;;;;;3.70;2.63;;;;;;;14.33;100.00;100209.75;1453392;89;21457;-89
2023/06/29 01:28:31;;;;;;;2.27;1.67;;;;;;;14.34;100.00;100207.40;1444857;89;22381;-88
2023/06/29 01:30:55;;;;;;;6.23;2.50;;;;;;;14.40;100.00;100206.69;1453916;89;21442;-89
2023/06/29 01:33:23;;;;;;;3.93;2.20;;;;;;;14.45;100.00;100205.66;1454575;89;21309;-89
2023/06/29 01:35:53;;;;;;;5.17;2.23;;;;;;;14.51;100.00;100206.78;1453304;89;22492;-88
2023/06/29 01:38:28;;;;;;;7.25;2.95;;;;;;;14.55;100.00;100203.28;1451626;89;21397;-89
2023/06/29 01:40:58;;;;;;;7.60;2.33;;;;;;;14.58;100.00;100206.41;1448672;89;21420;-90
2023/06/29 01:43:25;;;;;;;4.17;2.70;;;;;;;14.61;100.00;100205.22;1450537;90;21398;-91
2023/06/29 01:45:51;;;;;;;3.30;2.47;;;;;;;14.61;100.00;100202.56;1454022;89;21398;-89
2023/06/29 01:48:18;;;;;;;3.97;2.37;;;;;;;14.62;100.00;100201.58;1452883;89;21389;-91
2023/06/29 01:50:45;;;;;;;4.33;2.87;;;;;;;14.63;100.00;100200.55;1452124;89;21413;-90
2023/06/29 01:53:11;;;;;;;8.03;2.63;;;;;;;14.65;100.00;100206.54;1450311;89;22447;-90
2023/06/29 01:55:37;;;;;;;4.17;2.50;;;;;;;14.67;100.00;100207.16;1447395;89;21442;-90
2023/06/29 01:58:04;;;;;;;8.73;2.70;;;;;;;14.70;100.00;100205.47;1446999;89;21639;-88
2023/06/29 02:00:30;;;;;;;6.20;2.40;;;;;;;14.74;100.00;100202.79;1453848;89;21464;-90
2023/06/29 02:02:56;;;;;;;6.47;3.10;;;;;;;14.77;100.00;100203.76;1449904;89;21398;-90
2023/06/29 02:05:22;;;;;;;5.13;3.03;;;;;;;14.78;100.00;100198.74;1447419;90;21317;-90
2023/06/29 02:07:49;;;;;;;4.30;3.47;;;;;;;14.77;100.00;100205.09;1453251;90;21509;-90
2023/06/29 02:10:15;;;;;;;7.07;2.73;;;;;;;14.75;100.00;100199.11;1449501;90;21516;-91
2023/06/29 02:12:41;;;;;;;8.07;2.93;;;;;;;14.77;100.00;100206.42;1449991;89;21441;-90
2023/06/29 02:15:08;;;;;;;7.20;2.67;;;;;;;14.78;100.00;100202.74;1449844;90;22410;-89
2023/06/29 02:17:34;;;;;;;4.70;2.90;;;;;;;14.81;100.00;100214.36;1450182;90;21354;-89
2023/06/29 02:20:00;;;;;;;4.80;2.60;;;;;;;14.82;100.00;100216.55;1453015;90;21390;-87
2023/06/29 02:22:27;;;;;;;8.50;2.50;;;;;;;14.81;100.00;100211.70;1452566;90;21368;-88
2023/06/29 02:24:53;;;;;;;4.97;3.00;;;;;;;14.84;100.00;100211.34;1455211;89;21323;-89
2023/06/29 02:27:19;;;;;;;7.70;3.20;;;;;;;14.87;100.00;100211.01;1446849;89;21435;-89
2023/06/29 02:29:45;;;;;;;6.97;3.00;;;;;;;14.86;100.00;100211.17;1456204;90;21420;-91
2023/06/29 02:32:11;;;;;;;9.93;2.60;;;;;;;14.87;100.00;100209.67;1453348;89;22218;-89
2023/06/29 02:34:37;;;;;;;7.90;2.93;;;;;;;14.87;100.00;100213.67;1460757;90;21346;-90
2023/06/29 02:37:04;;;;;;;8.47;2.90;;;;;;;14.88;100.00;100212.66;1454065;89;21338;-88
2023/06/29 02:39:30;;;;;;;4.43;2.63;;;;;;;14.90;100.00;100213.79;1454853;89;21331;-89
2023/06/29 02:41:56;;;;;;;15.50;4.00;;;;;;;14.95;100.00;100222.58;1460849;90;21610;-89
2023/06/29 02:44:22;;;;;;;12.07;4.13;;;;;;;14.96;100.00;100221.56;1449178;90;21332;-87
2023/06/29 02:46:49;;;;;;;7.33;3.20;;;;;;;14.98;100.00;100231.55;1449217;90;22351;-87
2023/06/29 02:49:15;;;;;;;4.40;3.20;;;;;;;14.91;100.00;100236.78;1461635;89;21434;-90
2023/06/29 02:51:41;;;;;;;5.03;3.13;;;;;;;14.86;100.00;100239.16;1449926;90;21339;-88
2023/06/29 02:54:07;;;;;;;4.07;3.03;;;;;;;14.78;100.00;100244.03;1454323;89;21389;-88
2023/06/29 02:56:33;;;;;;;3.60;2.93;;;;;;;14.72;100.00;100245.27;1454157;90;21366;-87
2023/06/29 02:59:00;;;;;;;9.33;3.33;;;;;;;14.72;100.00;100244.75;1452976;90;21483;-88
2023/06/29 03:01:26;;;;;;;6.57;2.93;;;;;;;14.75;100.00;100243.06;1448662;90;21441;-87
2023/06/29 03:03:53;;;;;;;6.37;3.20;;;;;;;14.78;100.00;100237.37;1453813;89;21405;-88
2023/06/29 03:06:20;;;;;;;4.97;2.80;;;;;;;14.85;100.00;100233.00;1453109;90;22218;-91
2023/06/29 03:08:46;;;;;;;6.60;3.50;;;;;;;14.91;100.00;100231.95;1449663;90;21346;-90
2023/06/29 03:11:56;;;;;;;5.93;3.67;;;;;;;14.97;100.00;100232.56;1446014;90;22241;-89
2023/06/29 03:14:22;;;;;;;9.08;3.92;;;;;;;15.01;100.00;100236.52;1451885;88;21484;-89
2023/06/29 03:16:48;;;;;;;8.70;3.57;;;;;;;15.04;100.00;100231.64;1451760;89;22211;-89
2023/06/29 03:19:14;;;;;;;10.23;3.53;;;;;;;15.07;100.00;100238.45;1455374;89;21360;-89
2023/06/29 03:21:40;;;;;;;9.83;3.67;;;;;;;15.08;100.00;100242.28;1445922;89;21287;-88
2023/06/29 03:24:07;;;;;;;12.50;4.70;;;;;;;15.10;100.00;100241.60;1452896;90;21316;-88
2023/06/29 03:26:33;;;;;;;10.97;3.37;;;;;;;15.11;100.00;100243.76;1454203;90;21390;-89
2023/06/29 03:28:59;;;;;;;6.87;3.13;;;;;;;15.14;100.00;100248.73;1450842;90;22263;-89
2023/06/29 03:31:25;;;;;;;16.27;4.50;;;;;;;15.17;100.00;100255.02;1458549;89;21324;-88
2023/06/29 03:33:51;;;;;;;8.47;2.50;;;;;;;15.22;100.00;100255.31;1454383;90;21421;-86
2023/06/29 03:36:19;;;;;;;6.60;3.50;;;;;;;15.27;100.00;100247.58;1459519;87;21384;-90
2023/06/29 03:38:45;;;;;;;11.47;2.87;;;;;;;15.29;100.00;100242.89;1454190;89;21866;-89
2023/06/29 03:41:11;;;;;;;11.83;3.50;;;;;;;15.33;100.00;100254.02;1453716;90;21353;-90
2023/06/29 03:43:37;;;;;;;6.80;3.00;;;;;;;15.34;100.00;100257.84;1453293;90;21309;-87
2023/06/29 03:46:03;;;;;;;10.00;2.80;;;;;;;15.33;100.00;100250.87;1456490;90;21383;-90
2023/06/29 03:48:29;;;;;;;14.37;4.47;;;;;;;15.38;100.00;100254.81;1448863;89;21332;-89
2023/06/29 03:50:57;;;;;;;6.97;2.50;;;;;;;15.42;100.00;100256.09;1451390;90;21340;-90
2023/06/29 03:53:24;;;;;;;4.93;2.70;;;;;;;15.48;100.00;100244.20;1443159;90;21457;-90
2023/06/29 03:55:50;;;;;;;6.70;2.73;;;;;;;15.58;100.00;100234.06;1447504;89;21368;-88
2023/06/29 03:58:16;;;;;;;5.03;2.97;;;;;;;15.68;100.00;100237.84;1449807;89;22760;-90
2023/06/29 04:00:44;;;;;;;6.07;2.60;;;;;;;15.74;100.00;100237.09;1456320;90;21346;-90
2023/06/29 04:03:11;;;;;;;8.67;2.60;;;;;;;15.78;100.00;100252.21;1454559;90;22351;-91
2023/06/29 04:05:37;;;;;;;5.50;3.37;;;;;;;15.76;100.00;100255.05;1444832;89;21361;-89
2023/06/29 04:08:05;;;;;;;5.00;2.80;;;;;;;15.74;100.00;100259.77;1456107;90;21417;-89
2023/06/29 04:10:34;;;;;;;5.03;2.77;;;;;;;15.70;100.00;100258.47;1457893;89;22248;-89
2023/06/29 04:13:01;;;;;;;3.50;2.30;;;;;;;15.67;100.00;100256.65;1452370;89;21561;-88
2023/06/29 04:15:27;;;;;;;5.73;2.90;;;;;;;15.65;100.00;100266.19;1454696;88;21361;-87
2023/06/29 04:17:53;;;;;;;3.83;2.57;;;;;;;15.67;100.00;100266.81;1457710;89;21302;-88
2023/06/29 04:20:20;;;;;;;4.53;2.57;;;;;;;15.73;100.00;100267.43;1444242;90;22025;-88
2023/06/29 04:22:46;;;;;;;3.37;2.20;;;;;;;15.82;100.00;100276.67;1447917;89;21404;-88
2023/06/29 04:25:12;;;;;;;5.13;3.23;;;;;;;15.92;100.00;100273.23;1449162;90;22366;-88
2023/06/29 04:27:38;;;;;;;3.77;2.23;;;;;;;15.99;100.00;100272.79;1455631;89;21383;-89
2023/06/29 04:30:06;;;;;;;8.53;2.40;;;;;;;16.05;100.00;100279.22;1448685;89;22075;-88
2023/06/29 04:32:32;;;;;;;3.73;2.20;;;;;;;16.08;100.00;100271.66;1456091;89;22241;-88
2023/06/29 04:35:01;;;;;;;2.37;1.87;;;;;;;16.14;99.75;100277.62;1446953;90;21441;-88
2023/06/29 04:37:35;;;;;;;12.70;2.50;;;;;;;16.18;99.72;100276.21;1458717;88;21442;-88
2023/06/29 04:39:55;;;;;;;4.33;2.10;;;;;;;16.20;98.91;100290.72;1451681;89;22417;-88
2023/06/29 04:42:25;;;;;;;6.87;2.20;;;;;;;16.28;99.29;100287.09;1445431;89;22284;-88
2023/06/29 04:44:49;;;;;;;2.87;2.17;;;;;;;16.34;99.17;100292.53;1448421;89;21666;-88
2023/06/29 04:47:15;;;;;;;6.37;1.83;;;;;;;16.43;98.99;100288.72;1455977;89;22533;-89
2023/06/29 04:49:44;;;;;;;7.50;2.47;;;;;;;16.55;99.02;100287.71;1448407;89;22263;-88
2023/06/29 04:52:10;;;;;;;4.40;2.30;;;;;;;16.69;98.77;100296.17;1450997;89;22219;-89
2023/06/29 04:54:36;;;;;;;3.20;2.00;;;;;;;16.78;96.90;100294.75;1452498;89;21429;-89
2023/06/29 04:57:03;;;;;;;3.57;2.00;;;;;;;16.86;97.06;100286.58;1448416;89;21361;-89
2023/06/29 04:59:29;;;;;;;4.40;2.47;;;;;;;16.97;96.25;100283.91;1450948;89;21418;-89
2023/06/29 05:01:55;;;;;;;4.47;2.40;;;;;;;17.02;95.96;100281.48;1459885;89;21413;-85
2023/06/29 05:04:22;;;;;;;2.10;1.90;;;;;;;17.08;95.75;100280.19;1451846;88;22047;-87
2023/06/29 05:06:48;;;;;;;3.83;2.00;;;;;;;17.10;94.72;100278.16;1455662;90;21361;-89
2023/06/29 05:09:15;;;;;;;5.27;2.27;;;;;;;17.08;93.41;100279.38;1447320;90;21516;-89
2023/06/29 05:11:44;;;;;;;4.50;2.80;;;;;;;17.10;94.12;100278.16;1444881;90;22217;-89
2023/06/29 05:14:10;;;;;;;6.80;2.10;;;;;;;17.10;94.48;100295.54;1454020;90;22379;-87
2023/06/29 05:16:36;;;;;;;3.77;1.90;;;;;;;17.11;94.21;100301.19;1455491;90;21572;-89
2023/06/29 05:19:03;;;;;;;3.20;2.33;;;;;;;17.07;93.41;100313.31;1458819;90;21405;-87
2023/06/29 05:21:30;;;;;;;3.27;2.20;;;;;;;17.09;93.94;100306.41;1451759;90;21368;-88
2023/06/29 05:24:29;;;;;;;3.23;1.87;;;;;;;17.11;94.00;100299.86;1453364;89;21612;-86
2023/06/29 05:26:55;;;;;;;4.33;2.10;;;;;;;17.28;94.37;100301.74;1460535;90;22454;-90
2023/06/29 05:29:21;;;;;;;4.33;1.97;;;;;;;17.43;93.77;100314.19;1449463;89;21419;-89
2023/06/29 05:31:48;;;;;;;6.30;2.97;;;;;;;17.49;92.54;100321.43;1452224;90;21390;-88
2023/06/29 05:34:14;;;;;;;4.33;2.33;;;;;;;17.63;92.95;100323.69;1449368;90;21502;-87
2023/06/29 05:36:40;;;;;;;7.07;2.10;;;;;;;17.81;92.61;100330.75;1455909;90;21478;-85
2023/06/29 05:39:06;;;;;;;5.77;2.33;;;;;;;17.87;92.30;100327.80;1449167;90;21376;-86
2023/06/29 05:41:33;;;;;;;4.03;2.27;;;;;;;17.91;92.34;100328.53;1455230;90;21302;-86
2023/06/29 05:43:59;;;;;;;2.40;1.72;;;;;;;17.84;90.37;100325.00;1451343;90;21324;-86
2023/06/29 05:46:26;;;;;;;6.90;2.00;;;;;;;17.95;91.06;100324.45;1457268;89;22558;-86
2023/06/29 05:48:52;;;;;;;3.25;1.82;;;;;;;18.10;90.90;100323.48;1451080;90;21332;-85
2023/06/29 05:51:18;;;;;;;3.72;2.10;;;;;;;18.20;89.85;100326.59;1450972;90;21346;-85
2023/06/29 05:53:44;;;;;;;2.08;1.70;;;;;;;18.29;90.16;100329.41;1444820;90;22472;-84
2023/06/29 05:56:10;;;;;;;5.83;2.30;;;;;;;18.33;89.43;100320.48;1452437;90;21383;-84
2023/06/29 05:58:37;;;;;;;3.22;2.20;;;;;;;18.31;89.48;100331.39;1458628;90;21721;-85
2023/06/29 06:01:04;;;;;;;4.75;1.67;;;;;;;18.30;89.28;100337.78;1446453;90;21501;-86
2023/06/29 06:03:30;;;;;;;4.08;2.55;;;;;;;18.29;89.07;100332.61;1454257;90;21442;-85
2023/06/29 06:05:57;;;;;;;2.55;1.52;;;;;;;18.34;89.11;100333.66;1452776;89;22624;-86
2023/06/29 06:08:23;;;;;;;9.30;1.92;;;;;;;18.45;89.24;100331.74;1451548;88;22175;-84
2023/06/29 06:10:50;;;;;;;7.40;1.50;;;;;;;18.62;89.26;100331.39;1452742;89;21382;-84
2023/06/29 06:13:16;;;;;;;4.40;1.70;;;;;;;18.76;88.49;100327.73;1453032;89;21497;-86
2023/06/29 06:15:43;;;;;;;5.85;1.50;;;;;;;19.00;88.83;100328.17;1446420;89;21435;-86
2023/06/29 06:18:09;;;;;;;3.75;1.75;;;;;;;19.26;87.82;100335.41;1453561;89;21590;-87
2023/06/29 06:20:35;;;;;;;1.57;1.47;;;;;;;19.29;85.41;100337.16;1448628;89;21419;-85
2023/06/29 06:23:01;;;;;;;2.92;1.80;;;;;;;19.20;83.54;100335.72;1447125;89;21398;-85
2023/06/29 06:25:27;;;;;;;2.33;1.80;;;;;;;18.99;82.99;100331.87;1456831;89;21412;-85
2023/06/29 06:27:53;;;;;;;8.55;1.95;;;;;;;18.78;82.86;100327.52;1449772;89;21509;-85
2023/06/29 06:30:21;;;;;;;3.58;2.00;;;;;;;18.63;83.68;100331.69;1454458;89;22402;-86
2023/06/29 06:32:47;;;;;;;5.55;1.75;;;;;;;18.73;84.77;100340.18;1455508;90;21553;-86
2023/06/29 06:35:13;;;;;;;4.55;1.85;;;;;;;18.88;85.33;100332.80;1449286;89;21457;-84
2023/06/29 06:37:40;;;;;;;9.30;2.15;;;;;;;19.04;85.19;100331.56;1453617;89;22321;-85
2023/06/29 06:40:08;;;;;;;4.10;1.82;;;;;;;19.13;84.31;100324.14;1453131;89;21369;-84
2023/06/29 06:42:38;;;;;;;4.00;1.90;;;;;;;19.28;84.90;100330.15;1451135;89;21369;-85
2023/06/29 06:45:06;;;;;;;3.05;1.80;;;;;;;19.25;81.80;100333.24;1453120;89;21426;-85
2023/06/29 06:47:34;;;;;;;3.17;2.30;;;;;;;19.16;81.88;100337.99;1450616;88;21361;-87
2023/06/29 06:50:01;;;;;;;3.25;2.27;;;;;;;19.27;83.73;100337.87;1452707;89;21465;-85
2023/06/29 06:52:28;;;;;;;2.52;1.85;;;;;;;19.48;83.94;100334.65;1451355;89;22366;-83
2023/06/29 06:54:56;;;;;;;4.05;2.60;;;;;;;19.66;81.21;100334.88;1450515;89;21508;-80
2023/06/29 06:57:22;;;;;;;7.87;2.27;;;;;;;19.63;82.10;100337.95;1448915;89;21383;-81
2023/06/29 06:59:49;;;;;;;5.85;3.37;;;;;;;19.65;82.65;100333.24;1444396;89;21547;-82
2023/06/29 07:02:15;;;;;;;8.98;3.17;;;;;;;19.72;83.17;100336.72;1443917;90;21373;-82
2023/06/29 07:04:41;;;;;;;16.93;3.75;;;;;;;19.77;82.85;100334.24;1451458;89;21442;-81
2023/06/29 07:07:08;;;;;;;2.95;2.00;;;;;;;19.81;83.24;100342.17;1448716;88;21494;-81
2023/06/29 07:09:35;;;;;;;3.77;2.25;;;;;;;19.91;82.09;100342.25;1445924;90;22291;-80
2023/06/29 07:12:02;;;;;;;5.83;3.00;;;;;;;19.79;80.57;100342.92;1450963;89;21301;-81
2023/06/29 07:14:28;;;;;;;2.65;2.15;;;;;;;19.89;81.65;100344.34;1449575;90;21671;-81
2023/06/29 07:16:55;;;;;;;2.60;1.65;;;;;;;19.91;80.67;100338.22;1452832;89;22227;-82
2023/06/29 07:19:22;;;;;;;5.15;2.47;;;;;;;19.90;81.28;100341.95;1451014;90;21570;-82
2023/06/29 07:21:48;;;;;;;4.60;2.37;;;;;;;19.83;80.51;100338.77;1451064;90;21375;-82
2023/06/29 07:24:14;;;;;;;4.37;2.65;;;;;;;19.75;79.57;100338.98;1452911;90;21435;-80
2023/06/29 07:26:41;;;;;;;2.08;1.80;;;;;;;19.83;80.74;100341.98;1448869;90;21412;-82
2023/06/29 07:29:07;;;;;;;7.28;2.80;;;;;;;19.99;79.34;100334.78;1450738;90;21597;-82
2023/06/29 07:31:34;;;;;;;3.58;2.22;;;;;;;20.26;80.70;100340.90;1453403;89;21456;-82
2023/06/29 07:34:01;;;;;;;2.85;1.92;;;;;;;20.50;79.33;100339.85;1449744;89;21449;-81
2023/06/29 07:36:29;;;;;;;2.67;1.90;;;;;;;20.77;80.11;100339.73;1450118;89;22285;-83
2023/06/29 07:38:55;;;;;;;5.97;2.62;;;;;;;21.20;77.69;100334.44;1452584;90;21909;-83
2023/06/29 07:41:22;;;;;;;2.60;2.00;;;;;;;21.20;77.69;100334.44;1448521;89;22409;-82
2023/06/29 07:43:55;;;;;;;4.47;1.90;;;;;;;21.24;77.79;100336.20;1451737;89;21368;-80
2023/06/29 07:46:21;;;;;;;3.83;2.22;;;;;;;21.11;76.85;100337.11;1442733;90;21412;-81
2023/06/29 07:48:49;;;;;;;2.98;1.98;;;;;;;20.90;77.02;100342.34;1459143;89;21512;-84
2023/06/29 07:51:18;;;;;;;4.10;1.92;;;;;;;20.80;75.49;100347.36;1376235;90;21258;-83
2023/06/29 07:53:44;;;;;;;4.35;2.08;;;;;;;20.60;76.17;100346.13;1381342;89;21243;-81
2023/06/29 07:56:11;;;;;;;3.55;2.20;;;;;;;20.47;77.03;100358.58;1533721;90;21184;-81
2023/06/29 07:58:37;;;;;;;1.72;1.62;;;;;;;20.37;76.45;100349.31;1378010;89;22100;-81
2023/06/29 08:01:03;;;;;;;4.35;1.98;;;;;;;20.37;76.45;100349.31;1384262;90;21531;-82
2023/06/29 08:03:29;;;;;;;2.00;1.60;;;;;;;20.38;75.90;100359.61;1378078;89;21244;-84
2023/06/29 08:05:57;;;;;;;6.95;2.60;;;;;;;20.53;76.39;100359.61;1523291;89;21332;-80
2023/06/29 08:08:29;;;;;;;4.12;2.60;;;;;;;20.72;77.03;100356.00;1382191;90;21424;-83
2023/06/29 08:10:56;;;;;;;3.08;1.87;;;;;;;20.92;77.49;100361.78;1533726;90;21429;-80
2023/06/29 08:13:23;;;;;;;2.37;1.70;;;;;;;20.95;74.25;100357.31;1377193;89;21258;-82
2023/06/29 08:15:55;;;;;;;2.80;2.25;;;;;;;21.06;76.20;100352.58;1376801;90;21376;-81
2023/06/29 08:18:21;;;;;;;2.15;1.90;;;;;;;21.22;76.31;100356.58;1377865;90;21258;-81
2023/06/29 08:20:48;;;;;;;2.33;1.95;;;;;;;21.18;73.57;100357.55;1384007;90;21589;-80
2023/06/29 08:23:14;;;;;;;5.37;2.05;;;;;;;21.02;73.76;100364.80;1533854;90;21184;-80
2023/06/29 08:25:41;;;;;;;2.33;1.80;;;;;;;20.98;74.82;100362.26;1386205;90;21376;-82
2023/06/29 08:28:07;;;;;;;2.65;2.45;;;;;;;21.08;73.72;100354.51;1449071;90;21353;-83
2023/06/29 08:30:34;;;;;;;2.70;1.90;;;;;;;21.07;72.49;100369.02;1451501;89;21280;-81
2023/06/29 08:33:00;;;;;;;3.47;2.15;;;;;;;20.99;73.89;100362.55;1449314;90;21524;-81
2023/06/29 08:35:26;;;;;;;6.67;1.70;;;;;;;20.95;73.93;100362.69;1382427;90;21366;-82
2023/06/29 08:37:54;;;;;;;2.10;1.90;;;;;;;20.84;74.01;100368.77;1378401;90;21409;-84
2023/06/29 08:40:22;;;;;;;2.83;2.30;;;;;;;20.80;75.05;100373.76;1376682;89;22175;-81
2023/06/29 08:42:49;;;;;;;1.87;1.72;;;;;;;20.79;75.80;100368.58;1376168;89;21259;-82
2023/06/29 08:45:16;;;;;;;7.35;2.60;;;;;;;20.65;74.64;100379.40;1376782;89;21354;-80
2023/06/29 08:47:44;;;;;;;2.85;2.35;;;;;;;20.52;74.60;100378.11;1377395;89;21426;-80
2023/06/29 08:50:11;;;;;;;7.03;2.02;;;;;;;20.51;75.83;100377.78;1376805;89;21272;-82
2023/06/29 08:52:39;;;;;;;4.92;2.72;;;;;;;20.57;76.58;100376.98;1377820;89;21243;-80
2023/06/29 08:55:06;;;;;;;3.35;2.30;;;;;;;20.56;76.15;100367.25;1376069;90;21405;-81
2023/06/29 08:57:33;;;;;;;3.83;1.90;;;;;;;20.62;76.01;100379.83;1377559;89;21258;-82
2023/06/29 09:00:00;;;;;;;2.85;2.55;;;;;;;20.68;76.00;100381.66;1371041;90;21339;-81
2023/06/29 09:02:28;;;;;;;3.65;2.58;;;;;;;20.75;74.58;100383.52;1382881;89;21413;-80
2023/06/29 09:04:56;;;;;;;2.22;2.02;;;;;;;20.76;74.88;100382.46;1376309;89;22086;-81
2023/06/29 09:07:23;;;;;;;3.20;2.00;;;;;;;20.88;75.97;100382.89;1514419;90;21382;-80
2023/06/29 09:09:50;;;;;;;3.37;2.50;;;;;;;20.88;75.34;100365.93;1371805;90;21220;-81
2023/06/29 09:12:17;;;;;;;2.77;2.10;;;;;;;20.98;75.42;100382.44;1372532;90;21406;-81
2023/06/29 09:14:47;;;;;;;4.28;2.22;;;;;;;20.96;74.85;100391.23;1378606;90;21383;-80
2023/06/29 09:17:18;;;;;;;4.25;2.30;;;;;;;20.97;75.48;100383.45;1376817;89;21288;-81
2023/06/29 09:19:54;;;;;;;4.25;1.90;;;;;;;20.93;74.90;100387.63;1378161;88;22211;-82
2023/06/29 09:22:21;;;;;;;3.27;2.17;;;;;;;21.02;75.44;100389.02;1375084;88;21480;-82
2023/06/29 09:24:51;;;;;;;4.58;3.08;;;;;;;21.36;76.15;100385.56;1378738;88;22204;-80
2023/06/29 09:27:17;;;;;;;2.90;2.60;;;;;;;21.75;75.93;100379.55;1526514;89;21265;-81
2023/06/29 09:29:52;;;;;;;2.92;2.52;;;;;;;21.86;70.54;100383.67;1535185;90;22145;-80
2023/06/29 09:32:19;;;;;;;5.22;2.10;;;;;;;21.88;72.75;100380.77;1527313;90;21222;-81
2023/06/29 09:34:47;;;;;;;6.70;2.58;;;;;;;21.98;72.97;100378.39;1378572;90;21456;-82
2023/06/29 09:37:17;;;;;;;3.25;2.47;;;;;;;22.21;73.25;100376.91;1376870;88;21236;-81
2023/06/29 09:39:58;;;;;;;5.28;2.15;;;;;;;22.62;72.88;100369.45;1379663;88;21258;-81
2023/06/29 09:42:28;;;;;;;2.85;2.27;;;;;;;22.74;71.64;100364.11;1535360;88;21199;-81
2023/06/29 09:44:57;;;;;;;5.75;1.92;;;;;;;22.74;71.11;100364.92;1375897;88;22210;-81
2023/06/29 09:47:23;;;;;;;6.85;1.92;;;;;;;22.90;70.39;100358.06;1517292;89;21420;-81
2023/06/29 09:50:21;;;;;;;1.87;1.57;;;;;;;23.05;70.80;100360.89;1447396;90;22431;-81
2023/06/29 09:52:51;;;;;;;6.97;1.95;;;;;;;23.29;69.79;100357.16;1451784;90;21427;-80
2023/06/29 09:55:29;;;;;;;2.27;1.60;;;;;;;23.70;69.92;100355.44;1449407;88;21427;-81
2023/06/29 09:57:57;;;;;;;3.70;1.80;;;;;;;23.92;65.77;100354.84;1453846;88;21404;-80
2023/06/29 10:00:27;;;;;;;2.33;1.42;;;;;;;23.72;62.68;100349.27;1449217;88;22534;-83
2023/06/29 10:02:54;;;;;;;;;;;;;;;23.46;63.05;100352.42;1454921;90;21456;-82
2023/06/29 10:05:21;;;;;;;2.15;1.52;;;;;;;23.55;61.40;100347.78;1453018;90;20849;-82
2023/06/29 10:07:49;;;;;;;1.95;1.12;;;;;;;23.81;64.23;100346.50;1450233;89;21361;-82
2023/06/29 10:10:18;;;;;;;5.20;1.35;;;;;;;24.03;61.95;100345.89;1443714;89;21515;-81
2023/06/29 10:12:49;;;;;;;2.77;1.90;;;;;;;24.26;63.18;100347.72;1375135;89;21251;-80
2023/06/29 10:15:18;;;;;;;1.55;1.35;;;;;;;24.31;61.34;100348.64;1426229;89;21294;-82
2023/06/29 10:18:11;;;;;;;3.02;1.70;;;;;;;24.19;62.30;100345.13;1375054;90;22115;-82
2023/06/29 10:20:43;;;;;;;2.70;1.37;;;;;;;23.86;60.94;100346.62;1534077;88;21185;-82
2023/06/29 10:23:12;;;;;;;4.00;1.40;;;;;;;23.52;62.18;100345.55;1533888;90;21207;-81
2023/06/29 10:25:43;;;;;;;1.42;1.30;;;;;;;23.33;63.81;100342.16;1368593;90;21251;-82
2023/06/29 10:28:10;;;;;;;2.00;1.80;;;;;;;23.10;63.03;100350.20;1533681;89;22102;-82
2023/06/29 10:30:50;;;;;;;2.70;1.52;;;;;;;22.81;64.06;100345.93;1377155;90;21318;-82
2023/06/29 10:33:23;;;;;;;5.35;1.40;;;;;;;22.73;64.51;100344.41;1534192;89;21192;-81
2023/06/29 10:36:02;;;;;;;2.30;1.37;;;;;;;22.53;64.83;100345.20;1380572;90;22331;-81
2023/06/29 10:38:34;;;;;;;1.70;1.50;;;;;;;22.26;65.26;100344.18;1534507;89;21237;-82
2023/06/29 10:41:00;;;;;;;4.72;1.90;;;;;;;22.65;65.96;100341.20;1376495;89;21488;-83
2023/06/29 10:43:28;;;;;;;2.70;1.60;;;;;;;22.98;65.52;100336.15;1377793;89;21251;-79
2023/06/29 10:45:54;;;;;;;2.85;1.62;;;;;;;23.39;65.52;100331.77;1419152;89;21464;-82
2023/06/29 10:48:20;;;;;;;2.70;2.00;;;;;;;23.83;64.82;100328.17;1443565;89;22307;-84
2023/06/29 10:50:49;;;;;;;3.60;1.77;;;;;;;24.08;63.32;100330.60;1453432;89;21572;-83
2023/06/29 10:53:17;;;;;;;3.70;1.75;;;;;;;24.27;63.10;100339.34;1453172;89;22337;-82
2023/06/29 10:55:53;;;;;;;10.72;2.17;;;;;;;24.43;62.37;100334.28;1376185;89;21502;-82
2023/06/29 10:58:23;;;;;;;5.25;1.57;;;;;;;24.61;62.21;100331.38;1533476;89;21146;-83
2023/06/29 11:00:51;;;;;;;3.12;1.72;;;;;;;24.94;62.47;100343.30;1374057;89;21310;-83
2023/06/29 11:03:19;;;;;;;1.32;1.22;;;;;;;25.25;61.96;100337.09;1375629;89;22285;-81
2023/06/29 11:05:51;;;;;;;2.35;1.50;;;;;;;25.46;58.74;100334.96;1376046;90;21287;-81
2023/06/29 11:08:23;;;;;;;1.98;1.20;;;;;;;25.63;59.03;100338.46;1531292;89;22168;-80
2023/06/29 11:10:50;;;;;;;2.60;1.70;;;;;;;25.85;59.45;100336.36;1535162;90;22143;-82
2023/06/29 11:13:20;;;;;;;2.95;1.60;;;;;;;25.75;56.76;100338.89;1411886;88;21301;-81
2023/06/29 11:15:56;;;;;;;1.62;1.27;;;;;;;25.81;57.32;100336.56;1450187;88;22528;-81
2023/06/29 11:18:22;;;;;;;1.98;1.17;;;;;;;25.94;57.81;100340.81;1450246;90;22388;-83
2023/06/29 11:20:49;;;;;;;7.55;2.25;;;;;;;26.14;57.13;100331.58;1448849;90;21533;-83
2023/06/29 11:23:16;;;;;;;25.95;3.37;;;;;;;26.11;54.57;100339.67;1448059;88;21353;-80